Sycamore, Georgia
Current Conditions -  °F | °C
As of 9:10 AM on Saturday 25 Oct 2014 (Local Time) from KTMA Reporting Station
Clear Clear  
Wind Chill: 56°   Ceiling: Unl
Heat Index: 56°   Visibility: 10mi
Dew Point: 47°   Wind: 6mph
Humidity: 72%   Direction: 330°NNW
Pressure: 30.05"   Gusts: NA
Location:  31.67°N, 83.64°W
Report Text: KTMA 251310Z AUTO 33005KT 10SM CLR 14/09 A3005 RMK AO2 T01360086
Loading
Personal Weather Stations






























Interactive Weather Map
Tropical Storm Tracking
New forecast layout! Learn more

10-Day Weather Forecast

Advertisements
Track Severe Weather on mobile